sensor_id;sensor_type;location;lat;lon;timestamp;temperature;humidity
14097;DHT22;7125;48.106;11.544;2022-12-07T00:00:50;2.80;99.90
14097;DHT22;7125;48.106;11.544;2022-12-07T00:03:17;2.80;99.90
14097;DHT22;7125;48.106;11.544;2022-12-07T00:05:45;2.80;99.90
14097;DHT22;7125;48.106;11.544;2022-12-07T00:08:12;2.80;99.90
14097;DHT22;7125;48.106;11.544;2022-12-07T00:10:39;2.80;99.90
14097;DHT22;7125;48.106;11.544;2022-12-07T00:13:08;2.70;99.90
14097;DHT22;7125;48.106;11.544;2022-12-07T00:15:34;2.70;99.90
14097;DHT22;7125;48.106;11.544;2022-12-07T00:18:02;2.70;99.90
14097;DHT22;7125;48.106;11.544;2022-12-07T00:20:32;2.70;99.90
14097;DHT22;7125;48.106;11.544;2022-12-07T00:23:00;2.70;99.90
14097;DHT22;7125;48.106;11.544;2022-12-07T00:25:27;2.70;99.90
14097;DHT22;7125;48.106;11.544;2022-12-07T00:27:55;2.70;99.90
14097;DHT22;7125;48.106;11.544;2022-12-07T00:30:22;2.60;99.90
14097;DHT22;7125;48.106;11.544;2022-12-07T00:32:49;2.60;99.90
14097;DHT22;7125;48.106;11.544;2022-12-07T00:35:16;2.60;99.90
14097;DHT22;7125;48.106;11.544;2022-12-07T00:37:44;2.60;99.90
14097;DHT22;7125;48.106;11.544;2022-12-07T00:40:13;2.60;99.90
14097;DHT22;7125;48.106;11.544;2022-12-07T00:42:41;2.60;99.90
14097;DHT22;7125;48.106;11.544;2022-12-07T00:45:10;2.60;99.90
14097;DHT22;7125;48.106;11.544;2022-12-07T00:47:36;2.60;99.90
14097;DHT22;7125;48.106;11.544;2022-12-07T00:50:05;2.60;99.90
14097;DHT22;7125;48.106;11.544;2022-12-07T00:52:32;2.60;99.90
14097;DHT22;7125;48.106;11.544;2022-12-07T00:54:59;2.50;99.90
14097;DHT22;7125;48.106;11.544;2022-12-07T00:57:28;2.50;99.90
14097;DHT22;7125;48.106;11.544;2022-12-07T00:59:56;2.50;99.90
14097;DHT22;7125;48.106;11.544;2022-12-07T01:02:26;2.50;99.90
14097;DHT22;7125;48.106;11.544;2022-12-07T01:04:52;2.50;99.90
14097;DHT22;7125;48.106;11.544;2022-12-07T01:07:20;2.40;99.90
14097;DHT22;7125;48.106;11.544;2022-12-07T01:09:46;2.40;99.90
14097;DHT22;7125;48.106;11.544;2022-12-07T01:12:16;2.40;99.90
14097;DHT22;7125;48.106;11.544;2022-12-07T01:14:44;2.40;99.90
14097;DHT22;7125;48.106;11.544;2022-12-07T01:17:11;2.40;99.90
14097;DHT22;7125;48.106;11.544;2022-12-07T01:19:38;2.40;99.90
14097;DHT22;7125;48.106;11.544;2022-12-07T01:22:05;2.40;99.90
14097;DHT22;7125;48.106;11.544;2022-12-07T01:24:32;2.40;99.90
14097;DHT22;7125;48.106;11.544;2022-12-07T01:26:59;2.40;99.90
14097;DHT22;7125;48.106;11.544;2022-12-07T01:29:25;2.40;99.90
14097;DHT22;7125;48.106;11.544;2022-12-07T01:31:54;2.40;99.90
14097;DHT22;7125;48.106;11.544;2022-12-07T01:34:20;2.50;99.90
14097;DHT22;7125;48.106;11.544;2022-12-07T01:36:47;2.50;99.90
14097;DHT22;7125;48.106;11.544;2022-12-07T01:39:15;2.40;99.90
14097;DHT22;7125;48.106;11.544;2022-12-07T01:41:42;2.50;99.90
14097;DHT22;7125;48.106;11.544;2022-12-07T01:44:17;2.40;99.90
14097;DHT22;7125;48.106;11.544;2022-12-07T01:46:46;2.50;99.90
14097;DHT22;7125;48.106;11.544;2022-12-07T01:49:27;2.50;99.90
14097;DHT22;7125;48.106;11.544;2022-12-07T01:52:01;2.50;99.90
14097;DHT22;7125;48.106;11.544;2022-12-07T01:54:31;2.50;99.90
14097;DHT22;7125;48.106;11.544;2022-12-07T01:56:59;2.40;99.90
14097;DHT22;7125;48.106;11.544;2022-12-07T01:59:26;2.50;99.90
14097;DHT22;7125;48.106;11.544;2022-12-07T02:01:55;2.40;99.90
14097;DHT22;7125;48.106;11.544;2022-12-07T02:04:25;2.40;99.90
14097;DHT22;7125;48.106;11.544;2022-12-07T02:06:52;2.40;99.90
14097;DHT22;7125;48.106;11.544;2022-12-07T02:09:19;2.40;99.90
14097;DHT22;7125;48.106;11.544;2022-12-07T02:11:46;2.40;99.90
14097;DHT22;7125;48.106;11.544;2022-12-07T02:14:14;2.30;99.90
14097;DHT22;7125;48.106;11.544;2022-12-07T02:16:51;2.30;99.90
14097;DHT22;7125;48.106;11.544;2022-12-07T02:19:53;2.30;99.90
14097;DHT22;7125;48.106;11.544;2022-12-07T02:25:32;2.40;99.90
14097;DHT22;7125;48.106;11.544;2022-12-07T02:28:05;2.30;99.90
14097;DHT22;7125;48.106;11.544;2022-12-07T02:30:44;2.30;99.90
14097;DHT22;7125;48.106;11.544;2022-12-07T02:33:16;2.30;99.90
14097;DHT22;7125;48.106;11.544;2022-12-07T02:35:48;2.30;99.90
14097;DHT22;7125;48.106;11.544;2022-12-07T02:38:22;2.30;99.90
14097;DHT22;7125;48.106;11.544;2022-12-07T02:40:55;2.30;99.90
14097;DHT22;7125;48.106;11.544;2022-12-07T02:43:27;2.30;99.90
14097;DHT22;7125;48.106;11.544;2022-12-07T02:45:59;2.30;99.90
14097;DHT22;7125;48.106;11.544;2022-12-07T02:48:30;2.30;99.90
14097;DHT22;7125;48.106;11.544;2022-12-07T02:50:58;2.30;99.90
14097;DHT22;7125;48.106;11.544;2022-12-07T02:53:29;2.30;99.90
14097;DHT22;7125;48.106;11.544;2022-12-07T02:55:57;2.30;99.90
14097;DHT22;7125;48.106;11.544;2022-12-07T02:58:33;2.30;99.90
14097;DHT22;7125;48.106;11.544;2022-12-07T03:01:09;2.30;99.90
14097;DHT22;7125;48.106;11.544;2022-12-07T03:03:40;2.30;99.90
14097;DHT22;7125;48.106;11.544;2022-12-07T03:06:17;2.30;99.90
14097;DHT22;7125;48.106;11.544;2022-12-07T03:08:54;2.30;99.90
14097;DHT22;7125;48.106;11.544;2022-12-07T03:11:27;2.30;99.90
14097;DHT22;7125;48.106;11.544;2022-12-07T03:14:01;2.30;99.90
14097;DHT22;7125;48.106;11.544;2022-12-07T03:16:33;2.30;99.90
14097;DHT22;7125;48.106;11.544;2022-12-07T03:19:05;2.30;99.90
14097;DHT22;7125;48.106;11.544;2022-12-07T03:21:38;2.30;99.90
14097;DHT22;7125;48.106;11.544;2022-12-07T03:24:09;2.30;99.90
14097;DHT22;7125;48.106;11.544;2022-12-07T03:26:42;2.30;99.90
14097;DHT22;7125;48.106;11.544;2022-12-07T03:29:14;2.20;99.90
14097;DHT22;7125;48.106;11.544;2022-12-07T03:31:47;2.30;99.90
14097;DHT22;7125;48.106;11.544;2022-12-07T03:34:19;2.20;99.90
14097;DHT22;7125;48.106;11.544;2022-12-07T03:36:52;2.30;99.90
14097;DHT22;7125;48.106;11.544;2022-12-07T03:39:25;2.20;99.90
14097;DHT22;7125;48.106;11.544;2022-12-07T03:41:54;2.30;99.90
14097;DHT22;7125;48.106;11.544;2022-12-07T03:44:24;2.30;99.90
14097;DHT22;7125;48.106;11.544;2022-12-07T03:46:59;2.30;99.90
14097;DHT22;7125;48.106;11.544;2022-12-07T04:59:39;2.20;99.90
14097;DHT22;7125;48.106;11.544;2022-12-07T05:02:06;2.20;99.90
14097;DHT22;7125;48.106;11.544;2022-12-07T05:04:33;2.20;99.90
14097;DHT22;7125;48.106;11.544;2022-12-07T05:07:00;2.20;99.90
14097;DHT22;7125;48.106;11.544;2022-12-07T05:09:27;2.10;99.90
14097;DHT22;7125;48.106;11.544;2022-12-07T05:11:53;2.10;99.90
14097;DHT22;7125;48.106;11.544;2022-12-07T05:14:21;2.10;99.90
14097;DHT22;7125;48.106;11.544;2022-12-07T05:16:50;2.10;99.90
14097;DHT22;7125;48.106;11.544;2022-12-07T05:19:19;2.10;99.90
14097;DHT22;7125;48.106;11.544;2022-12-07T05:21:47;2.10;99.90
14097;DHT22;7125;48.106;11.544;2022-12-07T05:24:15;2.00;99.90
14097;DHT22;7125;48.106;11.544;2022-12-07T05:26:42;2.00;99.90
14097;DHT22;7125;48.106;11.544;2022-12-07T05:29:11;2.00;99.90
14097;DHT22;7125;48.106;11.544;2022-12-07T05:31:39;2.00;99.90
14097;DHT22;7125;48.106;11.544;2022-12-07T05:34:07;2.00;99.90
14097;DHT22;7125;48.106;11.544;2022-12-07T05:36:34;1.90;99.90
14097;DHT22;7125;48.106;11.544;2022-12-07T05:39:02;1.90;99.90
14097;DHT22;7125;48.106;11.544;2022-12-07T05:41:29;1.90;99.90
14097;DHT22;7125;48.106;11.544;2022-12-07T05:44:27;1.90;99.90
14097;DHT22;7125;48.106;11.544;2022-12-07T05:46:54;2.00;99.90
14097;DHT22;7125;48.106;11.544;2022-12-07T05:49:23;1.90;99.90
14097;DHT22;7125;48.106;11.544;2022-12-07T05:51:49;1.90;99.90
14097;DHT22;7125;48.106;11.544;2022-12-07T05:54:16;1.90;99.90
14097;DHT22;7125;48.106;11.544;2022-12-07T05:56:43;1.90;99.90
14097;DHT22;7125;48.106;11.544;2022-12-07T05:59:10;1.90;99.90
14097;DHT22;7125;48.106;11.544;2022-12-07T06:01:48;1.90;99.90
14097;DHT22;7125;48.106;11.544;2022-12-07T06:04:15;1.90;99.90
14097;DHT22;7125;48.106;11.544;2022-12-07T06:06:45;1.90;99.90
14097;DHT22;7125;48.106;11.544;2022-12-07T06:09:15;1.90;99.90
14097;DHT22;7125;48.106;11.544;2022-12-07T06:14:19;1.80;99.90
14097;DHT22;7125;48.106;11.544;2022-12-07T06:16:48;1.80;99.90
14097;DHT22;7125;48.106;11.544;2022-12-07T06:19:16;1.80;99.90
14097;DHT22;7125;48.106;11.544;2022-12-07T06:21:45;1.80;99.90
14097;DHT22;7125;48.106;11.544;2022-12-07T06:24:13;1.80;99.90
14097;DHT22;7125;48.106;11.544;2022-12-07T06:26:40;1.80;99.90
14097;DHT22;7125;48.106;11.544;2022-12-07T06:29:08;1.80;99.90
14097;DHT22;7125;48.106;11.544;2022-12-07T06:31:35;1.80;99.90
14097;DHT22;7125;48.106;11.544;2022-12-07T06:34:04;1.80;99.90
14097;DHT22;7125;48.106;11.544;2022-12-07T06:36:32;1.80;99.90
14097;DHT22;7125;48.106;11.544;2022-12-07T06:39:00;1.80;99.90
14097;DHT22;7125;48.106;11.544;2022-12-07T06:41:27;1.80;99.90
14097;DHT22;7125;48.106;11.544;2022-12-07T06:43:54;1.80;99.90
14097;DHT22;7125;48.106;11.544;2022-12-07T06:46:21;1.80;99.90
14097;DHT22;7125;48.106;11.544;2022-12-07T06:48:48;1.80;99.90
14097;DHT22;7125;48.106;11.544;2022-12-07T06:56:42;1.80;99.90
14097;DHT22;7125;48.106;11.544;2022-12-07T06:59:09;1.80;99.90
14097;DHT22;7125;48.106;11.544;2022-12-07T07:01:36;1.80;99.90
14097;DHT22;7125;48.106;11.544;2022-12-07T07:04:03;1.80;99.90
14097;DHT22;7125;48.106;11.544;2022-12-07T07:06:30;1.80;99.90
14097;DHT22;7125;48.106;11.544;2022-12-07T07:08:57;1.80;99.90
14097;DHT22;7125;48.106;11.544;2022-12-07T07:11:24;1.80;99.90
14097;DHT22;7125;48.106;11.544;2022-12-07T07:13:52;1.80;99.90
14097;DHT22;7125;48.106;11.544;2022-12-07T07:16:23;1.80;99.90
14097;DHT22;7125;48.106;11.544;2022-12-07T07:18:50;1.80;99.90
14097;DHT22;7125;48.106;11.544;2022-12-07T07:21:17;1.80;99.90
14097;DHT22;7125;48.106;11.544;2022-12-07T07:23:44;1.70;99.90
14097;DHT22;7125;48.106;11.544;2022-12-07T07:26:11;1.80;99.90
14097;DHT22;7125;48.106;11.544;2022-12-07T07:28:38;1.80;99.90
14097;DHT22;7125;48.106;11.544;2022-12-07T07:31:07;1.80;99.90
14097;DHT22;7125;48.106;11.544;2022-12-07T07:33:34;1.80;99.90
14097;DHT22;7125;48.106;11.544;2022-12-07T07:36:00;1.80;99.90
14097;DHT22;7125;48.106;11.544;2022-12-07T07:38:27;1.80;99.90
14097;DHT22;7125;48.106;11.544;2022-12-07T07:40:54;1.90;99.90
14097;DHT22;7125;48.106;11.544;2022-12-07T07:43:21;1.90;99.90
14097;DHT22;7125;48.106;11.544;2022-12-07T07:45:48;1.90;99.90
14097;DHT22;7125;48.106;11.544;2022-12-07T07:48:16;1.90;99.90
14097;DHT22;7125;48.106;11.544;2022-12-07T07:50:43;1.90;99.90
14097;DHT22;7125;48.106;11.544;2022-12-07T07:53:10;2.00;99.90
14097;DHT22;7125;48.106;11.544;2022-12-07T07:55:37;2.00;99.90
14097;DHT22;7125;48.106;11.544;2022-12-07T07:58:04;2.10;99.90
14097;DHT22;7125;48.106;11.544;2022-12-07T08:00:31;2.10;99.90
14097;DHT22;7125;48.106;11.544;2022-12-07T08:02:58;2.20;99.90
14097;DHT22;7125;48.106;11.544;2022-12-07T08:05:26;2.20;99.90
14097;DHT22;7125;48.106;11.544;2022-12-07T08:07:53;2.30;99.90
14097;DHT22;7125;48.106;11.544;2022-12-07T08:10:20;2.20;99.90
14097;DHT22;7125;48.106;11.544;2022-12-07T08:12:47;2.20;99.90
14097;DHT22;7125;48.106;11.544;2022-12-07T08:15:31;2.30;99.90
14097;DHT22;7125;48.106;11.544;2022-12-07T08:17:58;2.40;99.90
14097;DHT22;7125;48.106;11.544;2022-12-07T08:20:29;2.40;99.90
14097;DHT22;7125;48.106;11.544;2022-12-07T08:22:56;2.40;99.90
14097;DHT22;7125;48.106;11.544;2022-12-07T08:25:23;2.40;99.90
14097;DHT22;7125;48.106;11.544;2022-12-07T08:27:51;2.40;99.90
14097;DHT22;7125;48.106;11.544;2022-12-07T08:30:19;2.50;99.90
14097;DHT22;7125;48.106;11.544;2022-12-07T08:32:46;2.50;99.90
14097;DHT22;7125;48.106;11.544;2022-12-07T08:35:17;2.50;99.90
14097;DHT22;7125;48.106;11.544;2022-12-07T08:37:45;2.60;99.90
14097;DHT22;7125;48.106;11.544;2022-12-07T08:40:13;2.60;99.90
14097;DHT22;7125;48.106;11.544;2022-12-07T08:42:41;2.60;99.90
14097;DHT22;7125;48.106;11.544;2022-12-07T08:45:11;2.60;99.90
14097;DHT22;7125;48.106;11.544;2022-12-07T08:47:41;2.60;99.90
14097;DHT22;7125;48.106;11.544;2022-12-07T08:50:10;2.70;99.90
14097;DHT22;7125;48.106;11.544;2022-12-07T08:52:38;2.70;99.90
14097;DHT22;7125;48.106;11.544;2022-12-07T08:55:09;2.80;99.90
14097;DHT22;7125;48.106;11.544;2022-12-07T08:57:36;2.80;99.90
14097;DHT22;7125;48.106;11.544;2022-12-07T09:00:05;2.80;99.90
14097;DHT22;7125;48.106;11.544;2022-12-07T09:02:32;2.90;99.90
14097;DHT22;7125;48.106;11.544;2022-12-07T09:04:59;2.90;99.90
14097;DHT22;7125;48.106;11.544;2022-12-07T09:07:26;3.00;99.90
14097;DHT22;7125;48.106;11.544;2022-12-07T09:09:53;3.00;99.90
14097;DHT22;7125;48.106;11.544;2022-12-07T09:12:21;3.00;99.90
14097;DHT22;7125;48.106;11.544;2022-12-07T09:14:48;3.00;99.90
14097;DHT22;7125;48.106;11.544;2022-12-07T09:17:15;3.10;99.90
14097;DHT22;7125;48.106;11.544;2022-12-07T09:19:42;3.10;99.90
14097;DHT22;7125;48.106;11.544;2022-12-07T09:22:09;3.10;99.90
14097;DHT22;7125;48.106;11.544;2022-12-07T09:24:36;3.20;99.90
14097;DHT22;7125;48.106;11.544;2022-12-07T09:27:03;3.20;99.90
14097;DHT22;7125;48.106;11.544;2022-12-07T09:29:31;3.30;99.90
14097;DHT22;7125;48.106;11.544;2022-12-07T09:31:58;3.30;99.90
14097;DHT22;7125;48.106;11.544;2022-12-07T09:34:25;3.40;99.90
14097;DHT22;7125;48.106;11.544;2022-12-07T09:36:53;3.50;99.90
14097;DHT22;7125;48.106;11.544;2022-12-07T09:39:19;3.50;99.90
14097;DHT22;7125;48.106;11.544;2022-12-07T09:41:46;3.50;99.90
14097;DHT22;7125;48.106;11.544;2022-12-07T09:44:23;3.60;99.90
14097;DHT22;7125;48.106;11.544;2022-12-07T09:46:53;3.70;99.90
14097;DHT22;7125;48.106;11.544;2022-12-07T09:49:21;3.80;99.90
14097;DHT22;7125;48.106;11.544;2022-12-07T09:52:00;3.80;99.90
14097;DHT22;7125;48.106;11.544;2022-12-07T09:54:29;3.90;99.90
14097;DHT22;7125;48.106;11.544;2022-12-07T09:56:56;3.90;99.90
14097;DHT22;7125;48.106;11.544;2022-12-07T09:59:23;4.00;99.90
14097;DHT22;7125;48.106;11.544;2022-12-07T10:01:51;4.00;99.90
14097;DHT22;7125;48.106;11.544;2022-12-07T10:04:21;4.00;99.90
14097;DHT22;7125;48.106;11.544;2022-12-07T10:06:48;4.10;99.90
14097;DHT22;7125;48.106;11.544;2022-12-07T10:09:18;4.20;99.90
14097;DHT22;7125;48.106;11.544;2022-12-07T10:11:59;4.30;99.90
14097;DHT22;7125;48.106;11.544;2022-12-07T10:14:28;4.30;99.90
14097;DHT22;7125;48.106;11.544;2022-12-07T10:16:57;4.40;99.90
14097;DHT22;7125;48.106;11.544;2022-12-07T10:19:26;4.40;99.90
14097;DHT22;7125;48.106;11.544;2022-12-07T10:22:07;4.50;99.90
14097;DHT22;7125;48.106;11.544;2022-12-07T10:24:35;4.50;99.90
14097;DHT22;7125;48.106;11.544;2022-12-07T10:27:05;4.60;99.90
14097;DHT22;7125;48.106;11.544;2022-12-07T10:29:33;4.60;99.90
14097;DHT22;7125;48.106;11.544;2022-12-07T10:32:04;4.60;99.90
14097;DHT22;7125;48.106;11.544;2022-12-07T10:34:34;4.60;99.90
14097;DHT22;7125;48.106;11.544;2022-12-07T10:37:16;4.60;99.90
14097;DHT22;7125;48.106;11.544;2022-12-07T10:39:45;4.60;99.90
14097;DHT22;7125;48.106;11.544;2022-12-07T10:42:17;4.60;99.90
14097;DHT22;7125;48.106;11.544;2022-12-07T10:44:45;4.70;99.90
14097;DHT22;7125;48.106;11.544;2022-12-07T10:47:23;4.80;99.90
14097;DHT22;7125;48.106;11.544;2022-12-07T10:50:37;4.90;99.90
14097;DHT22;7125;48.106;11.544;2022-12-07T10:53:38;4.90;99.90
14097;DHT22;7125;48.106;11.544;2022-12-07T10:56:22;4.80;99.90
14097;DHT22;7125;48.106;11.544;2022-12-07T10:59:01;4.60;99.90
14097;DHT22;7125;48.106;11.544;2022-12-07T11:01:33;4.60;99.90
14097;DHT22;7125;48.106;11.544;2022-12-07T11:04:18;4.50;99.90
14097;DHT22;7125;48.106;11.544;2022-12-07T11:06:54;4.50;99.90
14097;DHT22;7125;48.106;11.544;2022-12-07T11:09:47;4.40;99.90
14097;DHT22;7125;48.106;11.544;2022-12-07T11:12:23;4.30;99.90
14097;DHT22;7125;48.106;11.544;2022-12-07T11:20:29;4.10;99.90
14097;DHT22;7125;48.106;11.544;2022-12-07T11:23:07;4.00;99.90
14097;DHT22;7125;48.106;11.544;2022-12-07T11:25:43;4.00;99.90
14097;DHT22;7125;48.106;11.544;2022-12-07T11:28:25;4.10;99.90
14097;DHT22;7125;48.106;11.544;2022-12-07T11:31:05;4.20;99.90
14097;DHT22;7125;48.106;11.544;2022-12-07T11:33:38;4.30;99.90
14097;DHT22;7125;48.106;11.544;2022-12-07T11:36:16;4.40;99.90
14097;DHT22;7125;48.106;11.544;2022-12-07T11:38:47;4.50;99.90
14097;DHT22;7125;48.106;11.544;2022-12-07T11:41:22;4.60;99.90
14097;DHT22;7125;48.106;11.544;2022-12-07T11:44:04;4.70;99.90
14097;DHT22;7125;48.106;11.544;2022-12-07T11:46:43;4.90;99.90
14097;DHT22;7125;48.106;11.544;2022-12-07T11:49:16;4.90;99.90
14097;DHT22;7125;48.106;11.544;2022-12-07T11:51:49;5.00;99.90
14097;DHT22;7125;48.106;11.544;2022-12-07T11:54:21;5.00;99.90
14097;DHT22;7125;48.106;11.544;2022-12-07T11:56:51;5.00;99.90
14097;DHT22;7125;48.106;11.544;2022-12-07T11:59:25;5.00;99.90
14097;DHT22;7125;48.106;11.544;2022-12-07T12:02:11;5.00;99.90
14097;DHT22;7125;48.106;11.544;2022-12-07T12:04:55;5.00;99.90
14097;DHT22;7125;48.106;11.544;2022-12-07T12:12:41;4.70;99.90
14097;DHT22;7125;48.106;11.544;2022-12-07T12:15:33;4.70;99.90
14097;DHT22;7125;48.106;11.544;2022-12-07T12:18:23;4.70;99.90
14097;DHT22;7125;48.106;11.544;2022-12-07T12:20:57;4.80;99.90
14097;DHT22;7125;48.106;11.544;2022-12-07T12:39:21;5.20;99.90
14097;DHT22;7125;48.106;11.544;2022-12-07T12:42:00;5.30;99.90
14097;DHT22;7125;48.106;11.544;2022-12-07T12:45:04;5.20;99.90
14097;DHT22;7125;48.106;11.544;2022-12-07T12:50:31;5.20;99.90
14097;DHT22;7125;48.106;11.544;2022-12-07T12:53:15;5.10;99.90
14097;DHT22;7125;48.106;11.544;2022-12-07T12:56:10;5.00;99.90
14097;DHT22;7125;48.106;11.544;2022-12-07T12:58:43;4.90;99.90
14097;DHT22;7125;48.106;11.544;2022-12-07T13:01:37;4.90;99.90
14097;DHT22;7125;48.106;11.544;2022-12-07T13:04:24;4.80;99.90
14097;DHT22;7125;48.106;11.544;2022-12-07T13:06:52;4.80;99.90
14097;DHT22;7125;48.106;11.544;2022-12-07T13:09:23;4.90;99.90
14097;DHT22;7125;48.106;11.544;2022-12-07T13:12:01;4.80;99.90
14097;DHT22;7125;48.106;11.544;2022-12-07T13:14:43;4.70;99.90
14097;DHT22;7125;48.106;11.544;2022-12-07T13:17:55;4.60;99.90
14097;DHT22;7125;48.106;11.544;2022-12-07T13:20:56;4.70;99.90
14097;DHT22;7125;48.106;11.544;2022-12-07T13:23:29;4.70;99.90
14097;DHT22;7125;48.106;11.544;2022-12-07T13:26:14;4.80;99.90
14097;DHT22;7125;48.106;11.544;2022-12-07T13:28:45;4.80;99.90
14097;DHT22;7125;48.106;11.544;2022-12-07T13:31:23;4.80;99.90
14097;DHT22;7125;48.106;11.544;2022-12-07T13:33:50;4.90;99.90
14097;DHT22;7125;48.106;11.544;2022-12-07T13:36:22;5.00;99.90
14097;DHT22;7125;48.106;11.544;2022-12-07T13:38:52;5.00;99.90
14097;DHT22;7125;48.106;11.544;2022-12-07T13:44:02;5.00;99.90
14097;DHT22;7125;48.106;11.544;2022-12-07T13:46:37;5.00;99.90
14097;DHT22;7125;48.106;11.544;2022-12-07T13:49:18;5.00;99.90
14097;DHT22;7125;48.106;11.544;2022-12-07T13:51:45;5.00;99.90
14097;DHT22;7125;48.106;11.544;2022-12-07T13:54:14;5.00;99.90
14097;DHT22;7125;48.106;11.544;2022-12-07T13:56:42;5.00;99.90
14097;DHT22;7125;48.106;11.544;2022-12-07T13:59:17;5.00;99.90
14097;DHT22;7125;48.106;11.544;2022-12-07T14:01:46;5.00;99.90
14097;DHT22;7125;48.106;11.544;2022-12-07T14:04:33;4.90;99.90
14097;DHT22;7125;48.106;11.544;2022-12-07T14:07:15;4.80;99.90
14097;DHT22;7125;48.106;11.544;2022-12-07T14:09:58;4.70;99.90
14097;DHT22;7125;48.106;11.544;2022-12-07T14:12:27;4.50;99.90
14097;DHT22;7125;48.106;11.544;2022-12-07T14:14:57;4.40;99.90
14097;DHT22;7125;48.106;11.544;2022-12-07T14:17:26;4.30;99.90
14097;DHT22;7125;48.106;11.544;2022-12-07T14:19:55;4.30;99.90
14097;DHT22;7125;48.106;11.544;2022-12-07T14:22:28;4.20;99.90
14097;DHT22;7125;48.106;11.544;2022-12-07T14:27:58;4.20;99.90
14097;DHT22;7125;48.106;11.544;2022-12-07T14:30:28;4.20;99.90
14097;DHT22;7125;48.106;11.544;2022-12-07T14:32:58;4.20;99.90
14097;DHT22;7125;48.106;11.544;2022-12-07T14:35:26;4.10;99.90
14097;DHT22;7125;48.106;11.544;2022-12-07T14:37:54;4.00;99.90
14097;DHT22;7125;48.106;11.544;2022-12-07T14:40:22;3.90;99.90
14097;DHT22;7125;48.106;11.544;2022-12-07T14:42:51;3.80;99.90
14097;DHT22;7125;48.106;11.544;2022-12-07T14:45:22;3.70;99.90
14097;DHT22;7125;48.106;11.544;2022-12-07T14:47:50;3.60;99.90
14097;DHT22;7125;48.106;11.544;2022-12-07T14:50:19;3.50;99.90
14097;DHT22;7125;48.106;11.544;2022-12-07T14:52:49;3.40;99.90
14097;DHT22;7125;48.106;11.544;2022-12-07T14:55:23;3.30;99.90
14097;DHT22;7125;48.106;11.544;2022-12-07T14:57:51;3.10;99.90
14097;DHT22;7125;48.106;11.544;2022-12-07T15:00:19;3.00;99.90
14097;DHT22;7125;48.106;11.544;2022-12-07T15:02:49;2.90;99.90
14097;DHT22;7125;48.106;11.544;2022-12-07T15:05:17;2.80;99.90
14097;DHT22;7125;48.106;11.544;2022-12-07T15:07:46;2.70;99.90
14097;DHT22;7125;48.106;11.544;2022-12-07T15:10:16;2.60;99.90
14097;DHT22;7125;48.106;11.544;2022-12-07T15:12:44;2.50;99.90
14097;DHT22;7125;48.106;11.544;2022-12-07T15:15:12;2.40;99.90
14097;DHT22;7125;48.106;11.544;2022-12-07T15:17:39;2.30;99.90
14097;DHT22;7125;48.106;11.544;2022-12-07T15:20:11;2.30;99.90
14097;DHT22;7125;48.106;11.544;2022-12-07T15:22:39;2.20;99.90
14097;DHT22;7125;48.106;11.544;2022-12-07T15:25:06;2.10;99.90
14097;DHT22;7125;48.106;11.544;2022-12-07T15:27:34;1.90;99.90
14097;DHT22;7125;48.106;11.544;2022-12-07T15:30:01;1.90;99.90
14097;DHT22;7125;48.106;11.544;2022-12-07T15:32:29;1.80;99.90
14097;DHT22;7125;48.106;11.544;2022-12-07T15:34:56;1.70;99.90
14097;DHT22;7125;48.106;11.544;2022-12-07T15:37:25;1.60;99.90
14097;DHT22;7125;48.106;11.544;2022-12-07T15:39:51;1.50;99.90
14097;DHT22;7125;48.106;11.544;2022-12-07T15:42:20;1.50;99.90
14097;DHT22;7125;48.106;11.544;2022-12-07T15:44:52;1.40;99.90
14097;DHT22;7125;48.106;11.544;2022-12-07T15:47:33;1.30;99.90
14097;DHT22;7125;48.106;11.544;2022-12-07T15:50:03;1.30;99.90
14097;DHT22;7125;48.106;11.544;2022-12-07T15:52:36;1.30;99.90
14097;DHT22;7125;48.106;11.544;2022-12-07T15:55:10;1.30;99.90
14097;DHT22;7125;48.106;11.544;2022-12-07T15:57:43;1.30;99.90
14097;DHT22;7125;48.106;11.544;2022-12-07T16:00:27;1.20;99.90
14097;DHT22;7125;48.106;11.544;2022-12-07T16:02:58;1.20;99.90
14097;DHT22;7125;48.106;11.544;2022-12-07T16:05:36;1.20;99.90
14097;DHT22;7125;48.106;11.544;2022-12-07T16:08:05;1.10;99.90
14097;DHT22;7125;48.106;11.544;2022-12-07T16:10:33;1.10;99.90
14097;DHT22;7125;48.106;11.544;2022-12-07T16:13:11;1.00;99.90
14097;DHT22;7125;48.106;11.544;2022-12-07T16:15:42;1.00;99.90
14097;DHT22;7125;48.106;11.544;2022-12-07T16:18:24;0.90;99.90
14097;DHT22;7125;48.106;11.544;2022-12-07T16:21:06;0.90;99.90
14097;DHT22;7125;48.106;11.544;2022-12-07T16:26:57;0.80;99.90
14097;DHT22;7125;48.106;11.544;2022-12-07T16:29:36;0.80;99.90
14097;DHT22;7125;48.106;11.544;2022-12-07T16:32:08;0.70;99.90
14097;DHT22;7125;48.106;11.544;2022-12-07T16:34:49;0.70;99.90
14097;DHT22;7125;48.106;11.544;2022-12-07T16:37:41;0.70;99.90
14097;DHT22;7125;48.106;11.544;2022-12-07T16:40:41;0.70;99.90
14097;DHT22;7125;48.106;11.544;2022-12-07T16:43:11;0.70;99.90
14097;DHT22;7125;48.106;11.544;2022-12-07T16:45:39;0.70;99.90
14097;DHT22;7125;48.106;11.544;2022-12-07T16:48:06;0.70;99.90
14097;DHT22;7125;48.106;11.544;2022-12-07T16:50:33;0.70;99.90
14097;DHT22;7125;48.106;11.544;2022-12-07T16:53:00;0.70;99.90
14097;DHT22;7125;48.106;11.544;2022-12-07T16:55:28;0.70;99.90
14097;DHT22;7125;48.106;11.544;2022-12-07T16:57:55;0.70;99.90
14097;DHT22;7125;48.106;11.544;2022-12-07T17:00:24;0.70;99.90
14097;DHT22;7125;48.106;11.544;2022-12-07T17:02:51;0.70;99.90
14097;DHT22;7125;48.106;11.544;2022-12-07T17:05:18;0.70;99.90
14097;DHT22;7125;48.106;11.544;2022-12-07T17:07:44;0.80;99.90
14097;DHT22;7125;48.106;11.544;2022-12-07T17:10:12;0.80;99.90
14097;DHT22;7125;48.106;11.544;2022-12-07T17:12:40;0.70;99.90
14097;DHT22;7125;48.106;11.544;2022-12-07T17:15:08;0.80;99.90
14097;DHT22;7125;48.106;11.544;2022-12-07T17:17:52;0.70;99.90
14097;DHT22;7125;48.106;11.544;2022-12-07T17:25:36;0.70;99.90
14097;DHT22;7125;48.106;11.544;2022-12-07T17:28:03;0.80;99.90
14097;DHT22;7125;48.106;11.544;2022-12-07T17:30:30;0.80;99.90
14097;DHT22;7125;48.106;11.544;2022-12-07T17:32:59;0.80;99.90
14097;DHT22;7125;48.106;11.544;2022-12-07T17:35:27;0.80;99.90
14097;DHT22;7125;48.106;11.544;2022-12-07T17:37:54;0.80;99.90
14097;DHT22;7125;48.106;11.544;2022-12-07T17:40:22;0.80;99.90
14097;DHT22;7125;48.106;11.544;2022-12-07T17:42:49;0.80;99.90
14097;DHT22;7125;48.106;11.544;2022-12-07T17:45:16;0.80;99.90
14097;DHT22;7125;48.106;11.544;2022-12-07T17:47:43;0.80;99.90
14097;DHT22;7125;48.106;11.544;2022-12-07T17:50:12;0.90;99.90
14097;DHT22;7125;48.106;11.544;2022-12-07T17:52:40;0.90;99.90
14097;DHT22;7125;48.106;11.544;2022-12-07T17:55:25;0.90;99.90
14097;DHT22;7125;48.106;11.544;2022-12-07T17:57:51;0.90;99.90
14097;DHT22;7125;48.106;11.544;2022-12-07T18:00:19;0.90;99.90
14097;DHT22;7125;48.106;11.544;2022-12-07T18:02:46;0.90;99.90
14097;DHT22;7125;48.106;11.544;2022-12-07T18:05:14;0.90;99.90
14097;DHT22;7125;48.106;11.544;2022-12-07T18:07:41;0.90;99.90
14097;DHT22;7125;48.106;11.544;2022-12-07T18:10:08;0.90;99.90
14097;DHT22;7125;48.106;11.544;2022-12-07T18:12:36;0.90;99.90
14097;DHT22;7125;48.106;11.544;2022-12-07T18:15:05;0.90;99.90